Time;durP1;ratioP1;P1;durP2;ratioP2;P2;SDS_P1;SDS_P2;PMS_P1;PMS_P2;Temp;Humidity;BMP_temperature;BMP_pressure;BME280_temperature;BME280_humidity;BME280_pressure;Samples;Min_cycle;Max_cycle;Signal;HPM_P1;HPM_P2
2022/08/06 00:02:29;;;;;;;;;0.00;0.00;;;;;22.04;34.47;101937.56;4996783;27;45641;-68
2022/08/06 00:04:56;;;;;;;;;1.00;1.00;;;;;22.67;34.18;102042.66;4995101;27;45356;-69
2022/08/06 00:07:21;;;;;;;;;2.33;1.00;;;;;22.52;33.94;102030.63;4992688;27;45469;-67
2022/08/06 00:09:47;;;;;;;;;2.00;1.00;;;;;22.48;34.11;102050.28;4992541;27;45716;-67
2022/08/06 00:12:13;;;;;;;;;2.00;2.00;;;;;22.36;34.39;102054.16;4992428;27;45785;-68
2022/08/06 00:14:39;;;;;;;;;1.00;1.00;;;;;22.14;34.68;102056.50;4993613;27;45708;-67
2022/08/06 00:17:04;;;;;;;;;1.33;1.33;;;;;21.99;34.88;102047.06;4996643;27;45287;-67
2022/08/06 00:19:30;;;;;;;;;1.33;1.33;;;;;21.74;35.53;102038.78;4997021;27;45327;-67
2022/08/06 00:21:56;;;;;;;;;1.00;1.00;;;;;21.73;35.63;102036.16;4993613;27;46053;-67
2022/08/06 00:24:22;;;;;;;;;2.00;0.67;;;;;21.91;35.95;102051.72;4991775;27;45595;-68
2022/08/06 00:26:48;;;;;;;;;2.00;1.00;;;;;22.00;35.26;102042.63;4992818;27;45557;-68
2022/08/06 00:29:14;;;;;;;;;1.00;1.00;;;;;21.99;35.31;102039.06;4987629;27;45873;-68
2022/08/06 00:31:40;;;;;;;;;0.33;0.33;;;;;22.14;34.96;102045.81;4984024;27;45401;-69
2022/08/06 00:34:06;;;;;;;;;1.67;0.00;;;;;22.10;34.79;102027.25;4993514;27;45375;-67
2022/08/06 00:36:33;;;;;;;;;1.00;1.00;;;;;22.10;34.72;102025.47;4991625;27;45517;-68
2022/08/06 00:39:01;;;;;;;;;0.00;0.00;;;;;22.10;35.05;102021.91;4992202;27;45526;-68
2022/08/06 00:41:29;;;;;;;;;1.00;1.00;;;;;22.07;35.28;102029.97;4991504;27;45460;-67
2022/08/06 00:43:58;;;;;;;;;0.00;0.00;;;;;22.08;35.23;102040.63;4991732;27;45444;-66
2022/08/06 00:46:24;;;;;;;;;1.00;1.00;;;;;22.11;34.97;102035.19;4974520;28;45513;-68
2022/08/06 00:48:50;;;;;;;;;1.00;1.00;;;;;22.20;34.60;102051.00;4993928;27;45572;-67
2022/08/06 00:51:16;;;;;;;;;2.00;1.00;;;;;22.18;34.79;102041.25;4995790;27;46613;-67
2022/08/06 00:53:41;;;;;;;;;0.67;0.67;;;;;22.18;35.01;102034.13;4991849;27;45323;-67
2022/08/06 00:56:10;;;;;;;;;1.00;1.00;;;;;22.27;34.82;102050.88;4992007;27;45587;-67
2022/08/06 00:58:37;;;;;;;;;0.67;0.67;;;;;22.27;34.87;102051.72;5009704;27;45495;-68
2022/08/06 01:01:02;;;;;;;;;1.00;1.00;;;;;22.22;35.20;102048.31;4985793;27;46170;-67
2022/08/06 01:03:28;;;;;;;;;2.00;2.00;;;;;22.07;35.79;102065.56;4992278;27;45347;-67
2022/08/06 01:05:55;;;;;;;;;1.00;1.00;;;;;21.64;36.03;102023.94;4993114;27;45393;-68
2022/08/06 01:08:20;;;;;;;;;3.00;1.67;;;;;21.88;35.73;102059.81;4994391;27;45643;-68
2022/08/06 01:10:46;;;;;;;;;1.33;1.33;;;;;21.98;35.77;102055.97;4996184;27;45504;-68
2022/08/06 01:13:12;;;;;;;;;2.00;1.00;;;;;22.07;35.27;102056.66;4993717;27;45473;-67
2022/08/06 01:15:42;;;;;;;;;1.67;1.00;;;;;21.92;35.53;102023.25;4994365;27;45611;-66
2022/08/06 01:18:11;;;;;;;;;2.00;2.00;;;;;22.14;35.55;102055.59;4996338;27;45835;-67
2022/08/06 01:21:10;;;;;;;;;3.33;2.00;;;;;21.89;35.96;102064.22;4996260;27;45504;-66
2022/08/06 01:24:02;;;;;;;;;5.00;4.00;;;;;21.91;35.58;102069.53;4995493;27;45444;-68
2022/08/06 01:26:51;;;;;;;;;3.00;3.00;;;;;21.87;35.52;102057.16;4995180;27;45560;-67
2022/08/06 01:29:22;;;;;;;;;4.00;3.67;;;;;21.72;36.31;102077.06;4980572;27;45612;-67
2022/08/06 01:31:59;;;;;;;;;6.33;5.00;;;;;21.52;36.53;102065.09;4992953;27;46150;-68
2022/08/06 01:34:34;;;;;;;;;4.00;4.00;;;;;21.36;36.68;102060.97;4980839;28;45806;-67
2022/08/06 01:37:36;;;;;;;;;5.33;5.33;;;;;21.25;37.41;102071.84;4992088;27;45478;-67
2022/08/06 01:40:07;;;;;;;;;4.67;4.67;;;;;21.13;37.31;102057.00;4992317;27;45429;-67
2022/08/06 01:42:35;;;;;;;;;3.00;3.00;;;;;21.35;37.19;102073.41;4991442;27;47855;-66
2022/08/06 01:45:09;;;;;;;;;4.00;3.00;;;;;21.33;36.92;102063.69;4994159;27;45301;-68
2022/08/06 01:47:37;;;;;;;;;3.33;2.00;;;;;21.05;37.06;102053.63;4978158;28;45477;-67
2022/08/06 01:50:06;;;;;;;;;3.33;3.33;;;;;21.18;37.38;102075.56;4992036;27;45429;-66
2022/08/06 01:52:43;;;;;;;;;1.67;1.67;;;;;21.25;37.19;102070.97;4972856;28;46726;-68
2022/08/06 01:55:14;;;;;;;;;2.00;2.00;;;;;21.31;36.89;102068.19;4991062;27;45451;-67
2022/08/06 01:58:02;;;;;;;;;3.33;3.33;;;;;21.12;37.91;102075.69;4991135;27;45416;-69
2022/08/06 02:00:31;;;;;;;;;3.00;2.00;;;;;20.88;38.17;102071.72;4991484;27;45496;-67
2022/08/06 02:03:03;;;;;;;;;5.67;2.33;;;;;20.93;38.02;102084.06;4991477;27;45421;-69
2022/08/06 02:05:30;;;;;;;;;2.00;2.00;;;;;21.07;37.79;102085.53;4993055;27;45438;-68
2022/08/06 02:07:59;;;;;;;;;1.67;1.67;;;;;21.19;37.47;102080.00;4996019;27;45345;-68
2022/08/06 02:10:28;;;;;;;;;3.00;2.00;;;;;21.26;37.16;102073.63;4992870;27;45478;-68
2022/08/06 02:12:54;;;;;;;;;3.00;1.33;;;;;21.30;37.08;102080.63;4990976;27;45596;-68
2022/08/06 02:15:26;;;;;;;;;1.67;1.67;;;;;21.31;37.04;102078.84;4994973;27;45421;-68
2022/08/06 02:17:56;;;;;;;;;1.00;1.00;;;;;21.42;37.01;102082.19;5079869;27;45410;-67
2022/08/06 02:20:26;;;;;;;;;1.00;1.00;;;;;21.44;37.03;102071.50;4993718;27;45445;-67
2022/08/06 02:22:54;;;;;;;;;3.67;2.00;;;;;21.26;36.86;102038.06;4990658;27;45488;-68
2022/08/06 02:25:21;;;;;;;;;4.33;3.00;;;;;21.38;36.84;102052.03;4973035;27;45691;-67
2022/08/06 02:27:52;;;;;;;;;2.00;2.00;;;;;21.44;36.91;102059.03;4994200;27;45466;-68
2022/08/06 02:30:18;;;;;;;;;2.00;2.00;;;;;21.50;36.95;102066.91;4994923;27;45837;-68
2022/08/06 02:32:44;;;;;;;;;2.00;2.00;;;;;21.50;36.61;102061.56;4995175;27;45305;-68
2022/08/06 02:35:10;;;;;;;;;3.00;3.00;;;;;21.43;36.82;102061.72;4992144;27;45424;-67
2022/08/06 02:37:52;;;;;;;;;3.00;3.00;;;;;21.49;36.70;102067.78;4990382;27;45395;-68
2022/08/06 02:40:23;;;;;;;;;4.00;2.33;;;;;21.49;36.79;102073.13;4972949;28;45423;-69
2022/08/06 02:42:57;;;;;;;;;4.50;3.50;;;;;21.36;36.93;102071.63;4990400;27;45510;-68
2022/08/06 02:45:59;;;;;;;;;3.67;3.67;;;;;21.20;37.03;102080.84;4991283;27;45390;-68
2022/08/06 02:48:33;;;;;;;;;3.00;3.00;;;;;21.11;37.10;102069.47;4993760;27;45628;-68
2022/08/06 02:51:04;;;;;;;;;3.00;1.33;;;;;21.16;37.20;102070.25;4991134;27;45513;-68
2022/08/06 02:53:45;;;;;;;;;5.00;4.00;;;;;20.91;37.49;102069.88;4993805;27;46430;-67
2022/08/06 02:56:14;;;;;;;;;3.67;3.00;;;;;20.75;38.15;102060.44;4993229;27;45661;-66
2022/08/06 02:58:53;;;;;;;;;3.00;3.00;;;;;20.71;37.91;102074.72;4993824;27;45903;-67
2022/08/06 03:01:23;;;;;;;;;3.00;3.00;;;;;20.72;38.04;102061.38;4993881;27;45367;-68
2022/08/06 03:03:53;;;;;;;;;3.33;3.00;;;;;20.66;37.79;102045.50;4993570;27;46475;-66
2022/08/06 03:06:20;;;;;;;;;1.00;1.00;;;;;20.68;38.03;102059.69;5014301;27;45385;-69
2022/08/06 03:08:49;;;;;;;;;1.67;1.67;;;;;20.64;38.09;102055.31;5043659;27;45574;-68
2022/08/06 03:11:16;;;;;;;;;2.00;2.00;;;;;20.73;37.91;102063.13;4993126;27;45449;-67
2022/08/06 03:13:44;;;;;;;;;1.33;0.67;;;;;20.81;38.13;102060.34;4993184;27;45412;-68
2022/08/06 03:16:12;;;;;;;;;1.00;1.00;;;;;20.87;37.91;102054.88;4992601;27;45443;-67
2022/08/06 03:18:39;;;;;;;;;1.33;1.00;;;;;20.90;40.44;102053.94;4994221;27;45325;-70
2022/08/06 03:21:07;;;;;;;;;1.00;1.00;;;;;21.03;38.61;102055.44;4993853;27;46734;-71
2022/08/06 03:23:34;;;;;;;;;1.67;1.67;;;;;20.82;38.82;102054.09;4993396;27;46495;-71
2022/08/06 03:26:01;;;;;;;;;1.00;1.00;;;;;20.72;39.68;102047.19;4993000;27;45815;-67
2022/08/06 03:28:28;;;;;;;;;3.00;1.00;;;;;20.95;39.73;102050.28;4993921;27;45307;-69
2022/08/06 03:30:55;;;;;;;;;1.00;1.00;;;;;21.13;38.46;102061.47;4993212;27;45857;-70
2022/08/06 03:33:22;;;;;;;;;3.00;2.00;;;;;21.16;38.38;102056.94;4977034;28;46809;-70
2022/08/06 03:35:49;;;;;;;;;1.00;1.00;;;;;21.01;38.41;102056.38;5018930;27;45461;-70
2022/08/06 03:38:16;;;;;;;;;1.00;1.00;;;;;21.13;38.48;102057.00;5039964;27;45334;-71
2022/08/06 03:40:47;;;;;;;;;1.67;1.00;;;;;21.21;37.90;102048.84;4996911;27;45454;-71
2022/08/06 03:43:13;;;;;;;;;1.67;1.00;;;;;21.26;37.75;102040.75;4997200;27;45378;-69
2022/08/06 03:45:46;;;;;;;;;1.00;1.00;;;;;21.40;37.92;102054.66;4995372;27;45343;-70
2022/08/06 03:48:16;;;;;;;;;1.00;1.00;;;;;21.37;37.52;102057.38;4993599;27;45629;-70
2022/08/06 03:50:46;;;;;;;;;1.00;1.00;;;;;20.99;37.51;102055.53;4979750;27;45535;-71
2022/08/06 03:53:18;;;;;;;;;2.00;1.00;;;;;21.08;38.06;102060.69;4992865;27;46128;-69
2022/08/06 03:55:47;;;;;;;;;1.00;1.00;;;;;21.21;38.21;102053.28;4997068;27;45469;-70
2022/08/06 03:58:14;;;;;;;;;1.00;1.00;;;;;21.26;37.09;102048.75;4995218;27;45418;-70
2022/08/06 04:00:49;;;;;;;;;2.00;0.00;;;;;21.28;37.44;102046.91;4993257;27;45558;-71
2022/08/06 04:03:16;;;;;;;;;0.00;0.00;;;;;21.32;37.10;102057.47;4992410;27;45475;-69
2022/08/06 04:05:43;;;;;;;;;0.67;0.67;;;;;21.27;37.65;102054.03;4993954;27;45449;-70
2022/08/06 04:08:12;;;;;;;;;2.00;1.00;;;;;21.27;37.09;102046.06;4998577;27;45602;-70
2022/08/06 04:10:42;;;;;;;;;1.00;0.00;;;;;21.31;36.96;102053.06;4996794;27;45457;-70
2022/08/06 04:13:15;;;;;;;;;2.00;2.00;;;;;21.15;37.64;102068.50;4997600;27;46432;-69
2022/08/06 04:15:45;;;;;;;;;4.00;1.00;;;;;20.72;37.83;102055.19;4997919;27;45489;-71
2022/08/06 04:18:14;;;;;;;;;1.33;1.33;;;;;20.54;38.09;102065.22;5081998;27;45620;-71
2022/08/06 04:20:45;;;;;;;;;1.00;1.00;;;;;20.41;38.60;102071.69;4996443;27;45567;-69
2022/08/06 04:23:11;;;;;;;;;1.00;1.00;;;;;20.32;38.90;102070.06;4994839;27;45745;-70
2022/08/06 04:25:41;;;;;;;;;1.00;1.00;;;;;20.46;38.91;102077.81;4995104;27;45544;-70
2022/08/06 04:28:17;;;;;;;;;2.33;2.00;;;;;20.31;38.42;102068.31;4998224;27;45263;-71
2022/08/06 04:30:45;;;;;;;;;2.00;1.00;;;;;19.78;38.05;101968.16;4997678;27;45281;-70
2022/08/06 04:33:14;;;;;;;;;1.00;1.00;;;;;20.20;37.54;102050.78;4998070;27;45515;-69
2022/08/06 04:35:41;;;;;;;;;1.00;1.00;;;;;20.08;37.91;102067.81;4995777;27;45318;-70
2022/08/06 04:38:08;;;;;;;;;0.33;0.33;;;;;20.05;38.33;102081.16;4992795;27;45502;-70
2022/08/06 04:40:35;;;;;;;;;1.00;1.00;;;;;20.09;38.14;102080.22;4993304;27;45464;-69
2022/08/06 04:43:04;;;;;;;;;5.00;1.00;;;;;20.05;38.01;102083.81;4991845;27;45527;-71
2022/08/06 04:45:31;;;;;;;;;1.67;1.00;;;;;20.15;37.29;102088.09;4992305;27;45765;-69
2022/08/06 04:47:59;;;;;;;;;3.00;1.00;;;;;20.14;37.60;102096.97;4993503;27;45550;-70
2022/08/06 04:50:25;;;;;;;;;2.00;1.00;;;;;20.04;38.10;102074.09;4994536;27;45516;-70
2022/08/06 04:52:50;;;;;;;;;1.00;1.00;;;;;20.28;38.08;102094.94;4992066;27;45417;-70
2022/08/06 04:55:22;;;;;;;;;1.00;1.00;;;;;20.19;37.38;102083.59;4996015;27;45467;-70
2022/08/06 04:57:47;;;;;;;;;1.00;1.00;;;;;20.12;37.87;102096.09;4992315;27;45616;-69
2022/08/06 05:00:13;;;;;;;;;2.33;1.00;;;;;20.18;37.30;102114.63;4992700;27;45518;-68
2022/08/06 05:02:39;;;;;;;;;1.67;1.00;;;;;20.07;37.39;102104.19;4990444;27;47938;-69
2022/08/06 05:05:07;;;;;;;;;3.67;1.00;;;;;20.11;37.35;102110.31;4991824;27;45442;-70
2022/08/06 05:07:36;;;;;;;;;1.00;1.00;;;;;20.10;38.45;102114.78;4992277;27;45393;-70
2022/08/06 05:10:02;;;;;;;;;1.00;1.00;;;;;20.08;38.12;102097.94;4992248;27;45268;-70
2022/08/06 05:12:57;;;;;;;;;0.67;0.67;;;;;20.40;37.68;102117.81;4992048;27;46336;-70
2022/08/06 05:15:29;;;;;;;;;1.00;1.00;;;;;20.16;38.15;102110.25;4998983;27;45438;-70
2022/08/06 05:18:09;;;;;;;;;0.00;0.00;;;;;20.28;37.96;102126.00;4990947;27;45730;-70
2022/08/06 05:20:39;;;;;;;;;2.00;1.00;;;;;20.26;37.99;102115.41;4996342;27;45383;-70
2022/08/06 05:23:22;;;;;;;;;1.00;1.00;;;;;20.40;37.31;102117.81;5005205;27;45456;-70
2022/08/06 05:25:49;;;;;;;;;1.00;1.00;;;;;20.19;37.28;102111.06;5056651;27;45605;-71
2022/08/06 05:28:14;;;;;;;;;1.00;1.00;;;;;20.23;37.35;102112.78;4992382;27;45464;-70
2022/08/06 05:30:48;;;;;;;;;1.00;1.00;;;;;20.46;37.43;102135.47;4992084;27;45445;-70
2022/08/06 05:33:27;;;;;;;;;1.00;1.00;;;;;20.41;36.91;102137.34;4992009;27;45979;-69
2022/08/06 05:35:53;;;;;;;;;1.00;1.00;;;;;20.36;37.46;102134.75;4993155;27;45488;-71
2022/08/06 05:38:19;;;;;;;;;1.00;1.00;;;;;20.09;37.42;102107.66;4992930;27;45480;-71
2022/08/06 05:40:45;;;;;;;;;0.33;0.33;;;;;20.25;37.85;102136.72;4993238;27;45452;-70
2022/08/06 05:43:10;;;;;;;;;0.00;0.00;;;;;20.47;37.41;102139.88;4975090;28;47584;-70
2022/08/06 05:45:38;;;;;;;;;0.67;0.67;;;;;20.64;36.99;102140.50;4992368;27;45367;-70
2022/08/06 05:48:05;;;;;;;;;1.00;1.00;;;;;20.72;37.35;102143.03;4992963;27;45774;-70
2022/08/06 05:50:37;;;;;;;;;0.33;0.33;;;;;20.92;37.06;102145.31;4994525;27;45468;-71
2022/08/06 05:53:11;;;;;;;;;0.33;0.33;;;;;21.12;36.64;102148.50;4991390;27;45373;-70
2022/08/06 05:55:54;;;;;;;;;1.00;1.00;;;;;21.08;36.64;102116.63;4991468;27;45675;-69
2022/08/06 05:58:36;;;;;;;;;0.00;0.00;;;;;21.28;35.77;102145.50;4980100;27;45513;-69
2022/08/06 06:01:04;;;;;;;;;1.00;1.00;;;;;21.15;36.32;102148.44;4991868;27;45382;-70
2022/08/06 06:03:31;;;;;;;;;3.00;1.00;;;;;21.20;35.84;102150.13;4991770;27;46912;-68
2022/08/06 06:06:01;;;;;;;;;0.00;0.00;;;;;21.19;35.50;102127.94;4991242;27;45352;-66
2022/08/06 06:08:27;;;;;;;;;0.00;0.00;;;;;21.48;35.84;102153.16;4991450;27;45473;-67
2022/08/06 06:10:54;;;;;;;;;0.67;0.00;;;;;21.59;35.45;102146.69;5075893;27;45821;-67
2022/08/06 06:13:22;;;;;;;;;1.00;1.00;;;;;21.56;35.29;102151.19;4991174;27;45413;-66
2022/08/06 06:16:18;;;;;;;;;1.00;1.00;;;;;21.41;35.30;102138.19;4991138;27;45406;-68
2022/08/06 06:18:47;;;;;;;;;1.00;1.00;;;;;21.44;35.19;102152.31;4999424;27;45372;-67
2022/08/06 06:21:43;;;;;;;;;0.00;0.00;;;;;21.27;35.69;102135.78;4991794;27;45566;-68
2022/08/06 06:24:20;;;;;;;;;1.00;1.00;;;;;21.43;35.88;102153.25;4992946;27;46488;-67
2022/08/06 06:27:00;;;;;;;;;2.00;0.00;;;;;21.58;34.98;102138.69;4990550;27;45382;-68
2022/08/06 06:29:50;;;;;;;;;2.00;1.00;;;;;21.69;34.81;102139.34;4991918;27;45418;-68
2022/08/06 06:32:26;;;;;;;;;1.00;1.00;;;;;21.60;34.78;102137.75;4989329;27;45499;-67
2022/08/06 06:35:01;;;;;;;;;1.00;1.00;;;;;21.29;34.72;102117.97;4990814;27;45857;-68
2022/08/06 06:37:46;;;;;;;;;2.00;2.00;;;;;21.29;34.96;102149.94;4990372;27;45457;-68
2022/08/06 06:40:25;;;;;;;;;1.67;1.00;;;;;21.10;35.60;102150.31;4989483;27;45560;-68
2022/08/06 06:43:08;;;;;;;;;1.00;0.00;;;;;21.15;35.58;102148.44;4973295;27;45413;-68
2022/08/06 06:46:04;;;;;;;;;0.67;0.67;;;;;21.35;35.36;102147.16;4975200;27;46700;-69
2022/08/06 06:48:39;;;;;;;;;1.00;1.00;;;;;21.50;35.16;102146.00;4976069;28;45425;-69
2022/08/06 06:51:10;;;;;;;;;0.00;0.00;;;;;21.71;34.87;102150.88;4976192;28;45417;-67
2022/08/06 06:53:41;;;;;;;;;1.00;1.00;;;;;21.85;34.57;102153.19;4977363;27;45413;-68
2022/08/06 06:56:09;;;;;;;;;0.00;0.00;;;;;22.01;33.89;102162.59;4977922;27;46183;-67
2022/08/06 06:58:36;;;;;;;;;1.00;1.00;;;;;22.06;33.90;102150.97;4961243;28;45508;-67
2022/08/06 07:01:06;;;;;;;;;0.00;0.00;;;;;22.11;33.88;102157.06;4980286;27;45485;-67
2022/08/06 07:03:34;;;;;;;;;0.33;0.33;;;;;22.16;33.60;102144.47;4978283;27;45419;-67
2022/08/06 07:06:02;;;;;;;;;0.67;0.67;;;;;22.30;33.49;102163.75;4960597;27;47349;-67
2022/08/06 07:08:29;;;;;;;;;1.00;1.00;;;;;22.33;33.39;102158.34;4957268;28;45376;-68
2022/08/06 07:10:57;;;;;;;;;1.00;1.00;;;;;22.36;33.24;102155.59;4975440;28;45525;-68
2022/08/06 07:13:25;;;;;;;;;1.00;1.00;;;;;22.44;33.37;102161.59;4973631;28;45470;-67
2022/08/06 07:15:53;;;;;;;;;0.33;0.33;;;;;22.44;34.10;102164.28;4973000;28;45492;-68
2022/08/06 07:18:21;;;;;;;;;1.00;1.00;;;;;22.30;33.48;102161.06;4973736;28;45497;-66
2022/08/06 07:20:48;;;;;;;;;1.00;1.00;;;;;22.40;32.82;102159.06;4972754;27;45372;-70
2022/08/06 07:23:16;;;;;;;;;1.00;1.00;;;;;22.34;32.52;102172.56;4975473;27;45481;-69
2022/08/06 07:25:45;;;;;;;;;0.00;0.00;;;;;22.40;32.72;102183.97;4972945;28;45463;-70
2022/08/06 07:28:12;;;;;;;;;1.33;0.00;;;;;22.54;33.36;102182.75;4957445;28;45596;-69
2022/08/06 07:30:40;;;;;;;;;0.00;0.00;;;;;22.55;33.84;102179.16;4978735;27;45593;-68
2022/08/06 07:33:09;;;;;;;;;2.00;0.00;;;;;22.74;33.36;102187.59;4991979;27;45320;-69
2022/08/06 07:35:36;;;;;;;;;1.33;0.00;;;;;22.95;33.26;102173.66;4989818;27;46433;-68
2022/08/06 07:38:06;;;;;;;;;0.00;0.00;;;;;23.16;32.99;102193.63;4989599;27;45511;-67
2022/08/06 07:40:42;;;;;;;;;0.67;0.67;;;;;23.26;32.01;102188.91;4975569;28;45842;-70
2022/08/06 07:43:20;;;;;;;;;0.33;0.33;;;;;23.23;32.10;102189.84;4991799;27;45696;-69
2022/08/06 07:45:49;;;;;;;;;2.00;0.00;;;;;23.20;33.08;102202.41;5077688;27;45452;-68
2022/08/06 07:48:18;;;;;;;;;0.00;0.00;;;;;23.24;31.92;102178.22;4992911;27;45941;-69
2022/08/06 07:50:48;;;;;;;;;3.00;0.33;;;;;23.26;31.76;102186.22;4992901;27;45466;-68
2022/08/06 07:53:15;;;;;;;;;0.00;0.00;;;;;23.29;31.63;102181.66;4992974;27;45714;-66
2022/08/06 07:55:43;;;;;;;;;0.00;0.00;;;;;23.48;31.35;102189.16;4992409;27;45418;-65
2022/08/06 07:58:10;;;;;;;;;1.00;0.00;;;;;23.59;31.21;102189.72;4992958;27;45377;-67
2022/08/06 08:00:37;;;;;;;;;0.67;0.00;;;;;23.65;30.95;102185.97;4996581;27;45480;-66
2022/08/06 08:08:33;;;;;;;;;2.00;0.00;;;;;23.73;30.88;102188.41;4992550;27;45405;-67
2022/08/06 08:11:00;;;;;;;;;0.00;0.00;;;;;23.73;31.91;102199.13;4992220;27;45783;-65
2022/08/06 08:13:25;;;;;;;;;3.00;1.00;;;;;23.61;30.90;102187.88;4993103;27;45332;-65
2022/08/06 08:15:52;;;;;;;;;0.00;0.00;;;;;23.54;30.87;102190.75;4995370;27;45496;-67
2022/08/06 08:18:17;;;;;;;;;0.67;0.00;;;;;23.57;30.95;102183.53;4992339;27;45663;-68
2022/08/06 08:20:49;;;;;;;;;1.00;1.00;;;;;23.67;31.22;102184.13;4994590;27;45236;-68
2022/08/06 08:23:15;;;;;;;;;0.00;0.00;;;;;23.90;30.92;102199.53;4993952;27;45444;-71
2022/08/06 08:25:41;;;;;;;;;0.00;0.00;;;;;23.78;30.84;102184.72;4992215;27;45876;-68
2022/08/06 08:28:08;;;;;;;;;0.00;0.00;;;;;23.94;30.73;102198.50;4991516;27;45455;-67
2022/08/06 08:30:39;;;;;;;;;1.00;1.00;;;;;23.87;30.12;102187.13;5076254;27;45585;-68
2022/08/06 08:33:04;;;;;;;;;0.00;0.00;;;;;23.77;30.72;102182.09;4992266;27;45469;-67
2022/08/06 08:35:30;;;;;;;;;0.00;0.00;;;;;23.79;30.71;102175.78;4974008;27;45386;-68
2022/08/06 08:37:55;;;;;;;;;0.33;0.33;;;;;23.95;29.83;102169.97;4992406;27;45434;-68
2022/08/06 08:40:24;;;;;;;;;1.00;0.00;;;;;24.06;29.86;102168.69;4992102;27;45418;-69
2022/08/06 08:42:55;;;;;;;;;0.00;0.00;;;;;24.17;28.11;102180.84;4992760;27;45977;-69
2022/08/06 08:45:21;;;;;;;;;0.00;0.00;;;;;23.85;28.05;102153.31;4991876;27;46242;-70
2022/08/06 08:47:51;;;;;;;;;0.00;0.00;;;;;23.99;29.14;102167.13;4991625;27;45768;-68
2022/08/06 08:50:23;;;;;;;;;1.00;0.00;;;;;24.06;28.66;102167.78;4994425;27;45290;-68
2022/08/06 08:52:51;;;;;;;;;0.00;0.00;;;;;24.02;27.76;102164.34;4993092;27;45335;-69
2022/08/06 08:55:22;;;;;;;;;0.67;0.67;;;;;23.71;28.09;102178.66;4991549;27;46261;-69
2022/08/06 08:57:51;;;;;;;;;1.00;1.00;;;;;23.55;29.25;102179.16;4991472;27;45883;-70
2022/08/06 09:00:17;;;;;;;;;0.00;0.00;;;;;23.56;29.06;102157.69;4993348;27;45431;-67
2022/08/06 09:02:44;;;;;;;;;0.00;0.00;;;;;23.67;29.17;102163.59;4996314;27;45481;-68
2022/08/06 09:05:10;;;;;;;;;0.00;0.00;;;;;23.88;29.26;102169.28;5077856;27;47227;-68
2022/08/06 09:07:38;;;;;;;;;0.33;0.33;;;;;24.04;28.44;102169.69;4991569;27;45522;-68
2022/08/06 09:10:08;;;;;;;;;0.00;0.00;;;;;24.16;27.87;102166.59;4992754;27;45972;-68
2022/08/06 09:12:34;;;;;;;;;0.00;0.00;;;;;24.28;28.03;102170.69;5080455;27;45523;-68
2022/08/06 09:15:00;;;;;;;;;0.33;0.33;;;;;24.33;27.28;102171.41;4992068;27;46225;-68
2022/08/06 09:17:28;;;;;;;;;2.00;0.33;;;;;24.26;27.52;102167.19;4992250;27;45488;-70
2022/08/06 09:19:53;;;;;;;;;0.67;0.67;;;;;24.19;27.84;102155.78;4991383;27;45713;-68
2022/08/06 09:22:19;;;;;;;;;1.00;1.00;;;;;24.16;27.42;102174.63;4992069;27;45426;-67
2022/08/06 09:24:44;;;;;;;;;1.00;0.00;;;;;24.14;27.28;102173.78;4991390;27;45543;-70
2022/08/06 09:27:15;;;;;;;;;0.00;0.00;;;;;24.06;27.57;102166.03;4991797;27;45741;-68
2022/08/06 09:29:55;;;;;;;;;0.67;0.67;;;;;23.91;27.04;102147.75;4991507;27;45433;-69
2022/08/06 09:32:41;;;;;;;;;0.33;0.33;;;;;24.13;26.58;102193.44;4991881;27;45449;-68
2022/08/06 09:35:23;;;;;;;;;0.00;0.00;;;;;24.21;28.04;102187.88;4991621;27;45327;-68
2022/08/06 09:37:50;;;;;;;;;1.00;1.00;;;;;24.19;26.39;102166.50;4961827;27;45739;-68
2022/08/06 09:40:18;;;;;;;;;0.33;0.33;;;;;24.19;26.90;102174.53;4992423;27;45274;-69
2022/08/06 09:42:50;;;;;;;;;0.00;0.00;;;;;24.26;26.88;102188.59;4978761;27;45682;-67
2022/08/06 09:45:18;;;;;;;;;0.00;0.00;;;;;24.25;26.18;102171.66;4992691;27;45583;-68
2022/08/06 09:48:05;;;;;;;;;1.67;1.00;;;;;24.35;26.30;102182.94;5077285;27;45363;-67
2022/08/06 09:50:45;;;;;;;;;0.00;0.00;;;;;24.18;26.33;102154.03;4993378;27;45512;-69
2022/08/06 09:53:15;;;;;;;;;0.00;0.00;;;;;24.43;25.77;102186.22;4982475;27;45639;-68
2022/08/06 09:55:42;;;;;;;;;1.00;0.00;;;;;24.36;25.32;102179.31;4992183;27;45484;-68
2022/08/06 09:58:08;;;;;;;;;1.00;1.00;;;;;24.19;25.13;102179.00;4991067;27;45379;-67
2022/08/06 10:00:35;;;;;;;;;0.00;0.00;;;;;24.18;25.15;102171.88;4991499;27;45505;-69
2022/08/06 10:03:10;;;;;;;;;0.00;0.00;;;;;24.08;25.04;102171.31;4990753;27;45598;-67
2022/08/06 10:05:35;;;;;;;;;0.00;0.00;;;;;24.11;25.30;102185.47;4991219;27;46180;-69
2022/08/06 10:08:13;;;;;;;;;0.67;0.33;;;;;24.08;24.78;102166.84;4991005;27;45555;-70
2022/08/06 10:10:47;;;;;;;;;0.00;0.00;;;;;24.04;25.74;102148.25;4994789;27;45758;-68
2022/08/06 10:13:24;;;;;;;;;0.00;0.00;;;;;24.21;26.05;102163.78;4991580;27;45525;-69
2022/08/06 10:15:51;;;;;;;;;1.33;0.00;;;;;24.32;25.71;102173.22;4993703;27;45467;-68
2022/08/06 10:18:35;;;;;;;;;1.00;0.00;;;;;24.40;26.17;102177.44;4991539;27;45434;-69
2022/08/06 10:21:06;;;;;;;;;1.00;0.00;;;;;24.54;25.45;102175.22;4991185;27;45735;-69
2022/08/06 10:23:37;;;;;;;;;1.00;1.00;;;;;24.52;23.79;102167.22;4991127;27;45475;-68
2022/08/06 10:26:10;;;;;;;;;0.00;0.00;;;;;24.30;24.46;102147.41;5074939;27;46992;-69
2022/08/06 10:28:38;;;;;;;;;1.67;0.33;;;;;24.33;24.75;102168.72;4990488;27;45628;-68
2022/08/06 10:31:09;;;;;;;;;2.00;1.00;;;;;24.25;25.07;102160.06;4990785;27;45773;-68
2022/08/06 10:33:57;;;;;;;;;0.00;0.00;;;;;24.07;25.19;102135.63;4991023;27;45566;-69
2022/08/06 10:36:34;;;;;;;;;0.00;0.00;;;;;24.28;25.44;102154.63;4990652;27;45711;-68
2022/08/06 10:39:01;;;;;;;;;2.00;1.00;;;;;24.33;24.94;102145.50;4990992;27;45501;-67
2022/08/06 10:41:27;;;;;;;;;0.00;0.00;;;;;24.52;25.51;102145.78;4991280;27;45417;-68
2022/08/06 10:43:55;;;;;;;;;1.00;1.00;;;;;24.63;24.65;102155.25;4994485;27;45385;-70
2022/08/06 10:46:22;;;;;;;;;0.00;0.00;;;;;24.76;25.04;102164.63;4974955;28;45400;-69
2022/08/06 10:48:48;;;;;;;;;1.00;1.00;;;;;24.88;25.31;102161.50;4973253;27;45296;-68
2022/08/06 10:51:15;;;;;;;;;1.00;1.00;;;;;24.88;24.93;102145.41;4986193;27;45468;-70
2022/08/06 10:53:43;;;;;;;;;2.67;1.00;;;;;24.90;24.93;102148.94;4971289;27;45713;-68
2022/08/06 10:56:15;;;;;;;;;0.00;0.00;;;;;24.93;24.36;102153.28;4974254;28;45314;-70
2022/08/06 10:58:42;;;;;;;;;4.33;2.00;;;;;24.98;24.13;102152.19;4973552;28;45589;-69
2022/08/06 11:01:16;;;;;;;;;2.33;2.33;;;;;24.87;23.69;102149.03;4970387;27;45359;-69
2022/08/06 11:04:13;;;;;;;;;2.67;2.00;;;;;24.75;24.04;102146.81;4970774;28;45394;-69
2022/08/06 11:07:05;;;;;;;;;2.33;1.67;;;;;24.92;24.64;102144.38;4970584;28;45481;-68
2022/08/06 11:09:43;;;;;;;;;3.00;3.00;;;;;25.05;24.22;102139.44;4970558;27;45358;-70
2022/08/06 11:12:18;;;;;;;;;5.67;2.00;;;;;25.05;23.65;102126.03;4970382;28;45453;-69
2022/08/06 11:14:44;;;;;;;;;6.00;3.33;;;;;25.09;23.88;102126.81;4976845;27;45319;-69
2022/08/06 11:17:11;;;;;;;;;3.00;3.00;;;;;25.04;24.34;102135.03;4973270;27;46183;-68
2022/08/06 11:19:45;;;;;;;;;2.33;2.33;;;;;25.10;23.91;102132.09;4973361;27;45500;-68
2022/08/06 11:22:37;;;;;;;;;2.33;2.33;;;;;24.96;24.09;102084.41;4973474;27;45398;-67
2022/08/06 11:25:04;;;;;;;;;3.00;3.00;;;;;25.28;24.05;102125.22;4976755;27;45375;-67
2022/08/06 11:27:56;;;;;;;;;2.67;2.67;;;;;25.41;24.36;102122.94;4973629;27;46322;-68
2022/08/06 11:30:54;;;;;;;;;1.67;1.33;;;;;25.49;24.07;102120.84;4976915;27;45354;-67
2022/08/06 11:33:32;;;;;;;;;3.00;3.00;;;;;25.52;23.68;102118.06;5058209;27;45350;-67
2022/08/06 11:36:09;;;;;;;;;3.00;2.33;;;;;25.22;23.57;102095.09;5065166;27;45446;-67
2022/08/06 11:38:46;;;;;;;;;3.00;2.00;;;;;25.37;23.16;102106.13;4992652;27;47296;-67
2022/08/06 11:41:21;;;;;;;;;2.00;1.00;;;;;25.57;23.15;102101.78;4979936;27;45445;-67
2022/08/06 11:43:53;;;;;;;;;2.33;2.00;;;;;25.66;23.07;102097.88;5068430;27;45507;-67
2022/08/06 11:46:27;;;;;;;;;1.33;1.33;;;;;25.80;23.50;102092.81;5059147;27;45386;-68
2022/08/06 11:48:59;;;;;;;;;2.00;2.00;;;;;26.00;22.91;102094.72;4993891;27;46170;-67